createdAt,value
2023-11-02T00:01:10.377Z,1.97
2023-11-02T00:03:43.190Z,1.97
2023-11-02T00:06:33.334Z,1.83
2023-11-02T00:09:17.117Z,1.83
2023-11-02T00:12:01.326Z,1.70
2023-11-02T00:14:34.664Z,1.60
2023-11-02T00:17:16.641Z,1.87
2023-11-02T00:19:45.914Z,1.10
2023-11-02T00:22:13.070Z,1.63
2023-11-02T00:24:42.726Z,1.40
2023-11-02T00:27:12.419Z,1.37
2023-11-02T00:29:40.519Z,1.80
2023-11-02T00:32:09.987Z,2.00
2023-11-02T00:34:41.155Z,1.77
2023-11-02T00:37:11.365Z,1.67
2023-11-02T00:39:41.513Z,1.83
2023-11-02T00:42:08.788Z,2.57
2023-11-02T00:44:35.923Z,1.70
2023-11-02T00:47:06.227Z,1.70
2023-11-02T00:49:33.436Z,1.40
2023-11-02T00:52:02.530Z,1.30
2023-11-02T00:54:47.504Z,1.23
2023-11-02T00:57:18.454Z,1.47
2023-11-02T00:59:48.738Z,1.47
2023-11-02T01:02:19.061Z,1.23
2023-11-02T01:04:56.538Z,1.60
2023-11-02T01:07:27.041Z,1.27
2023-11-02T01:10:03.693Z,1.13
2023-11-02T01:12:37.006Z,1.43
2023-11-02T01:15:12.043Z,1.40
2023-11-02T01:17:45.521Z,1.23
2023-11-02T01:20:27.477Z,1.13
2023-11-02T01:23:17.346Z,1.60
2023-11-02T01:25:52.335Z,1.60
2023-11-02T01:28:24.414Z,1.10
2023-11-02T01:31:13.506Z,1.10
2023-11-02T01:33:57.070Z,1.37
2023-11-02T01:36:41.085Z,1.33
2023-11-02T01:39:18.201Z,1.70
2023-11-02T01:42:04.698Z,1.30
2023-11-02T01:44:55.241Z,1.23
2023-11-02T01:47:57.997Z,1.20
2023-11-02T01:50:32.256Z,0.90
2023-11-02T01:53:14.849Z,0.87
2023-11-02T01:56:08.702Z,1.17
2023-11-02T01:59:14.587Z,1.13
2023-11-02T02:01:55.937Z,1.20
2023-11-02T02:04:44.657Z,0.90
2023-11-02T02:07:27.044Z,1.03
2023-11-02T02:10:26.297Z,1.00
2023-11-02T02:13:12.217Z,1.60
2023-11-02T02:16:00.765Z,0.77
2023-11-02T02:18:43.652Z,1.10
2023-11-02T02:21:28.397Z,0.60
2023-11-02T02:24:24.894Z,0.97
2023-11-02T02:27:13.749Z,1.00
2023-11-02T02:30:12.920Z,0.80
2023-11-02T02:33:13.296Z,0.90
2023-11-02T02:35:59.193Z,0.97
2023-11-02T02:38:54.772Z,0.97
2023-11-02T02:41:31.037Z,1.00
2023-11-02T02:44:00.840Z,1.20
2023-11-02T02:46:32.550Z,1.00
2023-11-02T02:49:03.104Z,0.83
2023-11-02T02:51:37.338Z,1.07
2023-11-02T02:54:09.275Z,0.90
2023-11-02T02:56:42.703Z,1.07
2023-11-02T02:59:19.204Z,0.93
2023-11-02T03:01:55.621Z,0.83
2023-11-02T03:04:24.584Z,0.80
2023-11-02T03:06:56.258Z,1.13
2023-11-02T03:09:31.058Z,1.00
2023-11-02T03:12:06.853Z,1.00
2023-11-02T03:14:44.164Z,1.10
2023-11-02T03:17:21.928Z,1.47
2023-11-02T03:19:50.607Z,1.43
2023-11-02T03:22:24.363Z,1.20
2023-11-02T03:25:09.587Z,1.00
2023-11-02T03:28:18.299Z,1.10
2023-11-02T03:31:03.108Z,1.07
2023-11-02T03:33:50.131Z,1.53
2023-11-02T03:36:47.901Z,0.67
2023-11-02T03:39:26.428Z,1.00
2023-11-02T03:42:19.368Z,1.10
2023-11-02T03:45:03.502Z,1.10
2023-11-02T03:47:46.457Z,0.73
2023-11-02T03:50:24.061Z,0.90
2023-11-02T03:53:06.754Z,1.27
2023-11-02T03:55:55.001Z,1.40
2023-11-02T03:58:40.179Z,1.00
2023-11-02T04:01:33.795Z,0.70
2023-11-02T04:04:14.461Z,0.90
2023-11-02T04:06:57.040Z,0.70
2023-11-02T04:09:29.337Z,0.90
2023-11-02T04:12:14.432Z,0.70
2023-11-02T04:14:45.333Z,0.90
2023-11-02T04:17:13.298Z,1.03
2023-11-02T04:19:41.346Z,0.70
2023-11-02T04:22:09.077Z,0.87
2023-11-02T04:24:42.893Z,0.80
2023-11-02T04:27:16.132Z,0.73
2023-11-02T04:29:43.296Z,1.30
2023-11-02T04:32:10.418Z,0.63
2023-11-02T04:34:39.793Z,0.80
2023-11-02T04:37:14.268Z,0.80
2023-11-02T04:39:46.185Z,0.60
2023-11-02T04:42:18.912Z,0.90
2023-11-02T04:44:47.151Z,0.70
2023-11-02T04:47:17.277Z,1.10
2023-11-02T04:49:47.437Z,0.83
2023-11-02T04:52:17.614Z,0.60
2023-11-02T04:54:44.884Z,0.70
2023-11-02T04:57:15.037Z,0.83
2023-11-02T04:59:44.021Z,0.70
2023-11-02T05:02:12.117Z,0.80
2023-11-02T05:04:42.219Z,0.90
2023-11-02T05:07:11.343Z,0.90
2023-11-02T05:09:45.658Z,1.00
2023-11-02T05:12:14.688Z,0.63
2023-11-02T05:14:41.777Z,0.70
2023-11-02T05:17:08.771Z,1.20
2023-11-02T05:19:41.586Z,0.90
2023-11-02T05:22:11.624Z,0.67
2023-11-02T05:24:39.683Z,0.90
2023-11-02T05:27:07.757Z,1.00
2023-11-02T05:29:35.160Z,1.50
2023-11-02T05:32:02.154Z,1.00
2023-11-02T05:34:29.441Z,1.13
2023-11-02T05:36:56.504Z,1.10
2023-11-02T05:39:23.563Z,1.27
2023-11-02T05:41:51.636Z,1.90
2023-11-02T05:44:21.730Z,1.23
2023-11-02T05:46:49.836Z,1.03
2023-11-02T05:49:17.922Z,1.40
2023-11-02T05:51:47.193Z,1.10
2023-11-02T05:54:15.287Z,1.03
2023-11-02T05:56:53.365Z,1.07
2023-11-02T05:59:23.414Z,1.03
2023-11-02T06:01:53.485Z,1.33
2023-11-02T06:04:23.593Z,1.13
2023-11-02T06:06:54.085Z,0.90
2023-11-02T06:09:24.298Z,0.93
2023-11-02T06:11:55.698Z,0.93
2023-11-02T06:14:28.026Z,0.83
2023-11-02T06:16:56.012Z,1.10
2023-11-02T06:19:24.108Z,0.90
2023-11-02T06:21:51.165Z,0.90
2023-11-02T06:24:20.157Z,1.20
2023-11-02T06:26:50.253Z,0.93
2023-11-02T06:29:17.404Z,0.93
2023-11-02T06:31:44.471Z,0.83
2023-11-02T06:34:16.857Z,0.80
2023-11-02T06:36:46.954Z,1.40
2023-11-02T06:39:21.733Z,1.00
2023-11-02T06:41:49.938Z,1.03
2023-11-02T06:44:17.107Z,1.20
2023-11-02T06:46:46.048Z,1.00
2023-11-02T06:49:14.314Z,0.93
2023-11-02T06:51:42.665Z,0.80
2023-11-02T06:54:12.767Z,0.80
2023-11-02T06:56:39.816Z,0.90
2023-11-02T06:59:09.962Z,1.20
2023-11-02T07:01:37.919Z,0.90
2023-11-02T07:04:08.189Z,1.40
2023-11-02T07:06:35.278Z,1.30
2023-11-02T07:09:02.431Z,1.50
2023-11-02T07:11:31.666Z,1.33
2023-11-02T07:13:58.989Z,1.40
2023-11-02T07:16:26.045Z,1.10
2023-11-02T07:18:57.975Z,1.60
2023-11-02T07:21:25.012Z,1.80
2023-11-02T07:23:55.098Z,1.97
2023-11-02T07:26:25.173Z,1.63
2023-11-02T07:29:02.676Z,2.17
2023-11-02T07:31:32.810Z,1.87
2023-11-02T07:34:01.983Z,1.27
2023-11-02T07:36:30.077Z,1.70
2023-11-02T07:39:00.188Z,1.80
2023-11-02T07:41:30.266Z,1.70
2023-11-02T07:43:59.295Z,2.10
2023-11-02T07:46:29.447Z,1.97
2023-11-02T07:48:57.659Z,2.23
2023-11-02T07:51:27.905Z,1.77
2023-11-02T07:53:57.129Z,2.00
2023-11-02T07:56:27.224Z,1.80
2023-11-02T07:58:54.311Z,1.57
2023-11-02T08:01:25.841Z,2.23
2023-11-02T08:03:56.077Z,2.67
2023-11-02T08:06:26.216Z,2.27
2023-11-02T08:08:54.247Z,1.97
2023-11-02T08:11:24.434Z,1.60
2023-11-02T08:13:52.607Z,1.80
2023-11-02T08:16:22.668Z,1.70
2023-11-02T08:18:49.828Z,2.07
2023-11-02T08:21:24.999Z,1.87
2023-11-02T08:23:54.028Z,1.83
2023-11-02T08:26:24.462Z,2.30
2023-11-02T08:28:57.637Z,1.90
2023-11-02T08:31:27.164Z,2.23
2023-11-02T08:33:58.650Z,1.50
2023-11-02T08:36:32.889Z,1.90
2023-11-02T08:39:00.408Z,1.97
2023-11-02T08:41:33.898Z,1.50
2023-11-02T08:44:05.337Z,1.93
2023-11-02T08:46:38.383Z,1.10
2023-11-02T08:49:07.478Z,1.50
2023-11-02T08:51:35.482Z,1.93
2023-11-02T08:54:05.160Z,1.40
2023-11-02T08:56:35.310Z,0.90
2023-11-02T08:59:05.113Z,1.23
2023-11-02T09:01:33.405Z,1.20
2023-11-02T09:04:03.094Z,1.47
2023-11-02T09:06:33.313Z,1.73
2023-11-02T09:09:00.414Z,1.50
2023-11-02T09:11:30.675Z,1.40
2023-11-02T09:13:58.760Z,1.50
2023-11-02T09:16:27.870Z,2.87
2023-11-02T09:19:01.211Z,1.67
2023-11-02T09:21:32.305Z,1.73
2023-11-02T09:24:00.344Z,0.93
2023-11-02T09:26:30.772Z,1.33
2023-11-02T09:29:02.260Z,1.00
2023-11-02T09:31:33.408Z,1.10
2023-11-02T09:34:07.048Z,1.30
2023-11-02T09:36:40.353Z,1.03
2023-11-02T09:39:11.868Z,1.10
2023-11-02T09:41:42.726Z,1.13
2023-11-02T09:44:11.199Z,1.20
2023-11-02T09:46:39.266Z,1.00
2023-11-02T09:49:09.479Z,0.93
2023-11-02T09:51:40.120Z,0.90
2023-11-02T09:54:10.226Z,1.00
2023-11-02T09:56:38.097Z,0.87
2023-11-02T09:59:08.646Z,1.30
2023-11-02T10:01:39.577Z,1.20
2023-11-02T10:04:06.903Z,0.80
2023-11-02T10:06:37.395Z,1.20
2023-11-02T10:09:05.404Z,0.90
2023-11-02T10:11:32.580Z,0.70
2023-11-02T10:14:00.179Z,1.30
2023-11-02T10:16:27.369Z,1.50
2023-11-02T10:18:57.739Z,1.30
2023-11-02T10:21:25.855Z,1.00
2023-11-02T10:23:57.369Z,1.23
2023-11-02T10:26:26.999Z,1.10
2023-11-02T10:28:59.345Z,1.07
2023-11-02T10:31:28.663Z,0.87
2023-11-02T10:34:02.681Z,1.10
2023-11-02T10:36:34.645Z,1.30
2023-11-02T10:39:03.348Z,0.90
2023-11-02T10:41:34.896Z,1.10
2023-11-02T10:44:07.768Z,1.10
2023-11-02T10:46:36.655Z,1.27
2023-11-02T10:49:12.789Z,1.23
2023-11-02T10:51:45.793Z,0.80
2023-11-02T10:54:24.838Z,0.90
2023-11-02T10:57:12.006Z,1.03
2023-11-02T10:59:43.598Z,0.80
2023-11-02T11:02:12.771Z,0.40
2023-11-02T11:04:44.822Z,0.97
2023-11-02T11:07:18.317Z,0.80
2023-11-02T11:09:51.094Z,0.70
2023-11-02T11:12:22.212Z,0.60
2023-11-02T11:14:53.104Z,0.67
2023-11-02T11:17:20.350Z,0.47
2023-11-02T11:19:47.378Z,0.50
2023-11-02T11:22:18.227Z,0.47
2023-11-02T11:24:55.072Z,0.70
2023-11-02T11:27:40.095Z,0.70
2023-11-02T11:30:37.374Z,0.53
2023-11-02T11:33:04.938Z,0.40
2023-11-02T11:35:33.329Z,0.70
2023-11-02T11:38:01.931Z,0.53
2023-11-02T11:40:30.639Z,0.47
2023-11-02T11:43:17.345Z,1.07
2023-11-02T11:45:50.554Z,0.50
2023-11-02T11:48:46.157Z,1.00
2023-11-02T11:51:34.213Z,0.80
2023-11-02T11:54:16.747Z,0.93
2023-11-02T11:56:46.899Z,0.63
2023-11-02T11:59:16.059Z,0.60
2023-11-02T12:01:46.229Z,0.50
2023-11-02T12:04:49.822Z,0.70
2023-11-02T12:07:25.846Z,0.50
2023-11-02T12:09:53.120Z,0.40
2023-11-02T12:12:20.549Z,0.63
2023-11-02T12:14:48.292Z,0.40
2023-11-02T12:17:15.279Z,0.50
2023-11-02T12:19:43.685Z,0.83
2023-11-02T12:22:14.148Z,0.60
2023-11-02T12:24:56.217Z,0.90
2023-11-02T12:27:26.213Z,0.50
2023-11-02T12:29:59.020Z,0.80
2023-11-02T12:32:25.964Z,0.70
2023-11-02T12:35:14.129Z,0.70
2023-11-02T12:37:43.333Z,0.60
2023-11-02T12:40:10.941Z,0.90
2023-11-02T12:42:40.127Z,0.60
2023-11-02T12:45:07.632Z,0.80
2023-11-02T12:47:42.984Z,0.50
2023-11-02T12:50:32.069Z,0.60
2023-11-02T12:53:01.106Z,0.70
2023-11-02T12:55:46.512Z,0.50
2023-11-02T12:58:17.735Z,0.47
2023-11-02T13:00:44.740Z,0.67
2023-11-02T13:03:15.932Z,0.53
2023-11-02T13:05:46.441Z,0.60
2023-11-02T13:08:25.812Z,0.60
2023-11-02T13:10:54.048Z,0.30
2023-11-02T13:13:21.344Z,0.40
2023-11-02T13:15:52.879Z,0.50
2023-11-02T13:18:21.261Z,0.43
2023-11-02T13:20:51.430Z,0.50
2023-11-02T13:23:22.247Z,0.40
2023-11-02T13:25:53.432Z,0.30
2023-11-02T13:28:21.512Z,0.90
2023-11-02T13:30:50.767Z,0.40
2023-11-02T13:33:19.026Z,0.60
2023-11-02T13:35:49.197Z,0.70
2023-11-02T13:38:18.927Z,0.30
2023-11-02T13:40:55.172Z,0.60
2023-11-02T13:43:23.345Z,0.57
2023-11-02T13:45:51.648Z,0.50
2023-11-02T13:48:19.003Z,0.60
2023-11-02T13:50:47.956Z,0.60
2023-11-02T13:53:15.540Z,0.60
2023-11-02T13:55:44.538Z,0.77
2023-11-02T13:58:14.916Z,0.23
2023-11-02T14:00:42.030Z,0.30
2023-11-02T14:03:12.349Z,0.33
2023-11-02T14:05:42.683Z,0.40
2023-11-02T14:08:15.913Z,0.20
2023-11-02T14:10:43.917Z,0.30
2023-11-02T14:13:13.378Z,0.60
2023-11-02T14:15:44.206Z,0.40
2023-11-02T14:18:12.017Z,0.53
2023-11-02T14:20:40.279Z,0.53
2023-11-02T14:23:07.407Z,0.80
2023-11-02T14:25:34.561Z,0.70
2023-11-02T14:28:02.676Z,0.87
2023-11-02T14:30:30.061Z,0.70
2023-11-02T14:32:57.225Z,0.50
2023-11-02T14:35:27.477Z,0.60
2023-11-02T14:37:58.457Z,0.53
2023-11-02T14:40:25.616Z,0.40
2023-11-02T14:42:52.569Z,0.53
2023-11-02T14:45:20.687Z,0.63
2023-11-02T14:47:52.339Z,0.70
2023-11-02T14:50:24.129Z,0.60
2023-11-02T14:52:53.452Z,0.70
2023-11-02T14:55:21.761Z,0.90
2023-11-02T14:57:52.416Z,0.87
2023-11-02T15:00:21.146Z,2.17
2023-11-02T15:02:50.051Z,0.87
2023-11-02T15:05:21.472Z,1.27
2023-11-02T15:07:48.569Z,0.80
2023-11-02T15:10:16.749Z,0.80
2023-11-02T15:12:49.086Z,0.70
2023-11-02T15:15:19.365Z,1.03
2023-11-02T15:17:55.042Z,0.90
2023-11-02T15:20:25.240Z,0.90
2023-11-02T15:23:02.198Z,1.23
2023-11-02T15:25:30.683Z,1.57
2023-11-02T15:27:57.826Z,1.93
2023-11-02T15:30:25.013Z,1.10
2023-11-02T15:32:52.432Z,1.27
2023-11-02T15:35:19.381Z,1.77
2023-11-02T15:37:46.523Z,1.50
2023-11-02T15:40:13.776Z,0.83
2023-11-02T15:42:42.305Z,1.03
2023-11-02T15:45:10.960Z,1.83
2023-11-02T15:47:44.117Z,1.40
2023-11-02T15:50:12.690Z,1.60
2023-11-02T15:52:44.601Z,1.77
2023-11-02T15:55:17.963Z,1.27
2023-11-02T15:57:47.618Z,1.33
2023-11-02T16:00:17.940Z,1.27
2023-11-02T16:02:48.690Z,1.27
2023-11-02T16:05:18.986Z,1.23
2023-11-02T16:07:49.465Z,1.10
2023-11-02T16:10:16.977Z,1.73
2023-11-02T16:12:47.342Z,1.40
2023-11-02T16:15:19.345Z,1.07
2023-11-02T16:17:50.046Z,1.07
2023-11-02T16:20:19.249Z,1.00
2023-11-02T16:22:49.727Z,1.00
2023-11-02T16:25:21.284Z,0.63
2023-11-02T16:27:49.114Z,0.90
2023-11-02T16:30:16.480Z,1.40
2023-11-02T16:32:43.787Z,0.97
2023-11-02T16:35:24.540Z,0.90
2023-11-02T16:38:03.191Z,0.70
2023-11-02T16:40:33.384Z,1.20
2023-11-02T16:43:05.069Z,0.97
2023-11-02T16:45:37.227Z,1.13
2023-11-02T16:48:08.237Z,1.07
2023-11-02T16:50:38.407Z,0.80
2023-11-02T16:53:05.469Z,0.80
2023-11-02T16:55:32.738Z,0.80
2023-11-02T16:58:00.862Z,0.87
2023-11-02T17:00:27.930Z,1.60
2023-11-02T17:02:55.103Z,1.30
2023-11-02T17:05:26.243Z,1.37
2023-11-02T17:07:54.324Z,1.30
2023-11-02T17:10:21.435Z,1.57
2023-11-02T17:12:53.718Z,1.10
2023-11-02T17:15:25.768Z,1.20
2023-11-02T17:17:54.605Z,1.00
2023-11-02T17:20:24.630Z,1.00
2023-11-02T17:22:51.708Z,1.47
2023-11-02T17:25:19.952Z,1.00
2023-11-02T17:27:48.117Z,1.40
2023-11-02T17:30:16.321Z,1.47
2023-11-02T17:32:46.529Z,1.00
2023-11-02T17:35:16.754Z,1.13
2023-11-02T17:37:43.772Z,1.20
2023-11-02T17:40:14.987Z,1.57
2023-11-02T17:42:48.143Z,1.80
2023-11-02T17:45:18.472Z,1.20
2023-11-02T17:47:47.572Z,1.27
2023-11-02T17:50:17.645Z,1.20
2023-11-02T17:52:49.164Z,1.23
2023-11-02T17:55:22.153Z,1.30
2023-11-02T17:57:50.728Z,1.57
2023-11-02T18:00:19.293Z,1.97
2023-11-02T18:02:51.545Z,1.30
2023-11-02T18:05:20.454Z,1.30
2023-11-02T18:07:51.578Z,1.20
2023-11-02T18:10:18.632Z,1.37
2023-11-02T18:12:50.750Z,1.20
2023-11-02T18:15:18.876Z,1.30
2023-11-02T18:17:47.896Z,1.87
2023-11-02T18:20:16.964Z,1.77
2023-11-02T18:22:45.516Z,2.20
2023-11-02T18:25:16.071Z,1.43
2023-11-02T18:27:44.603Z,1.80
2023-11-02T18:30:15.202Z,2.00
2023-11-02T18:32:48.136Z,1.40
2023-11-02T18:35:21.709Z,1.70
2023-11-02T18:37:52.096Z,1.30
2023-11-02T18:40:26.169Z,2.03
2023-11-02T18:42:56.290Z,1.73
2023-11-02T18:45:26.442Z,1.70
2023-11-02T18:47:55.038Z,1.67
2023-11-02T18:50:22.872Z,2.07
2023-11-02T18:52:51.909Z,2.97
2023-11-02T18:55:20.055Z,1.83
2023-11-02T18:57:50.274Z,1.80
2023-11-02T19:00:17.579Z,1.60
2023-11-02T19:02:51.080Z,1.30
2023-11-02T19:05:20.355Z,1.43
2023-11-02T19:07:48.381Z,1.43
2023-11-02T19:10:15.490Z,1.53
2023-11-02T19:12:45.667Z,1.67
2023-11-02T19:15:13.310Z,1.93
2023-11-02T19:17:40.449Z,1.77
2023-11-02T19:20:09.988Z,1.80
2023-11-02T19:22:40.114Z,2.10
2023-11-02T19:25:09.284Z,2.10
2023-11-02T19:27:39.785Z,2.50
2023-11-02T19:30:11.638Z,2.33
2023-11-02T19:32:40.677Z,1.83
2023-11-02T19:35:14.027Z,2.10
2023-11-02T19:37:41.141Z,2.33
2023-11-02T19:40:16.874Z,1.73
2023-11-02T19:42:44.053Z,2.13
2023-11-02T19:45:11.333Z,2.87
2023-11-02T19:47:40.435Z,2.33
2023-11-02T19:50:11.177Z,2.27
2023-11-02T19:52:45.678Z,3.00
2023-11-02T19:55:15.433Z,2.47
2023-11-02T19:57:48.236Z,2.30
2023-11-02T20:00:17.519Z,2.53
2023-11-02T20:02:45.834Z,1.90
2023-11-02T20:05:25.310Z,2.43
2023-11-02T20:07:55.376Z,2.10
2023-11-02T20:10:23.403Z,2.20
2023-11-02T20:12:50.730Z,2.37
2023-11-02T20:15:17.848Z,2.20
2023-11-02T20:17:45.053Z,2.00
2023-11-02T20:20:14.409Z,2.50
2023-11-02T20:22:41.531Z,2.30
2023-11-02T20:25:09.332Z,2.10
2023-11-02T20:27:37.461Z,2.27
2023-11-02T20:30:08.159Z,3.23
2023-11-02T20:32:38.339Z,2.50
2023-11-02T20:35:08.787Z,3.40
2023-11-02T20:37:36.796Z,2.63
2023-11-02T20:40:04.928Z,2.40
2023-11-02T20:42:33.423Z,2.53
2023-11-02T20:45:04.065Z,2.33
2023-11-02T20:47:31.318Z,2.87
2023-11-02T20:49:59.741Z,2.67
2023-11-02T20:52:26.819Z,2.40
2023-11-02T20:54:55.210Z,2.20
2023-11-02T20:57:25.345Z,1.80
2023-11-02T20:59:55.985Z,2.93
2023-11-02T21:02:26.377Z,2.63
2023-11-02T21:04:54.474Z,2.53
2023-11-02T21:07:23.605Z,2.47
2023-11-02T21:09:50.739Z,2.50
2023-11-02T21:12:21.085Z,1.90
2023-11-02T21:14:51.477Z,2.07
2023-11-02T21:17:19.573Z,1.93
2023-11-02T21:19:49.651Z,2.00
2023-11-02T21:22:16.829Z,2.03
2023-11-02T21:24:49.054Z,1.83
2023-11-02T21:27:19.229Z,2.00
2023-11-02T21:29:49.299Z,1.97
2023-11-02T21:32:17.308Z,1.80
2023-11-02T21:34:45.493Z,1.80
2023-11-02T21:37:15.651Z,1.93
2023-11-02T21:39:42.796Z,1.57
2023-11-02T21:42:11.891Z,1.97
2023-11-02T21:44:43.300Z,1.57
2023-11-02T21:47:10.483Z,1.83
2023-11-02T21:49:37.567Z,1.30
2023-11-02T21:52:05.847Z,1.70
2023-11-02T21:54:37.900Z,2.40
2023-11-02T21:57:08.198Z,1.70
2023-11-02T21:59:36.157Z,1.50
2023-11-02T22:02:06.664Z,1.67
2023-11-02T22:04:34.945Z,1.30
2023-11-02T22:07:04.529Z,1.67
2023-11-02T22:09:36.249Z,1.30
2023-11-02T22:12:04.719Z,2.40
2023-11-02T22:14:32.768Z,1.47
2023-11-02T22:17:05.859Z,1.70
2023-11-02T22:19:32.936Z,1.63
2023-11-02T22:22:00.443Z,1.50
2023-11-02T22:24:30.600Z,1.40
2023-11-02T22:26:57.605Z,1.40
2023-11-02T22:29:26.876Z,1.40
2023-11-02T22:31:54.975Z,1.80
2023-11-02T22:34:24.105Z,1.20
2023-11-02T22:36:53.499Z,1.50
2023-11-02T22:39:21.569Z,1.53
2023-11-02T22:41:51.670Z,1.43
2023-11-02T22:44:20.388Z,1.80
2023-11-02T22:46:48.674Z,1.77
2023-11-02T22:49:16.847Z,1.83
2023-11-02T22:51:49.039Z,1.63
2023-11-02T22:54:19.373Z,1.70
2023-11-02T22:57:06.555Z,1.90
2023-11-02T22:59:36.702Z,1.90
2023-11-02T23:02:03.742Z,2.17
2023-11-02T23:04:33.474Z,1.63
2023-11-02T23:07:00.895Z,2.20
2023-11-02T23:09:28.915Z,2.00
2023-11-02T23:11:55.929Z,2.27
2023-11-02T23:14:25.470Z,1.97
2023-11-02T23:16:58.561Z,1.93
2023-11-02T23:19:28.733Z,2.67
2023-11-02T23:21:58.949Z,1.83
2023-11-02T23:24:26.928Z,2.57
2023-11-02T23:26:53.936Z,2.03
2023-11-02T23:29:20.975Z,2.77
2023-11-02T23:31:50.795Z,2.60
2023-11-02T23:34:19.253Z,2.00
2023-11-02T23:36:46.303Z,2.33
2023-11-02T23:39:13.355Z,2.60
2023-11-02T23:41:41.877Z,2.83
2023-11-02T23:44:08.930Z,2.33
2023-11-02T23:46:36.984Z,2.77
2023-11-02T23:49:04.136Z,2.73
2023-11-02T23:51:31.396Z,2.53
2023-11-02T23:53:58.577Z,2.63
2023-11-02T23:56:25.711Z,2.53
2023-11-02T23:58:52.718Z,2.53
